sensor_id;sensor_type;location;lat;lon;timestamp;temperature;humidity
2190;DHT22;1101;51.056;7.262;2022-08-24T00:01:50;20.50;70.30
2190;DHT22;1101;51.056;7.262;2022-08-24T00:04:18;20.40;70.30
2190;DHT22;1101;51.056;7.262;2022-08-24T00:06:46;20.40;70.40
2190;DHT22;1101;51.056;7.262;2022-08-24T00:09:15;20.30;70.30
2190;DHT22;1101;51.056;7.262;2022-08-24T00:11:43;20.30;70.50
2190;DHT22;1101;51.056;7.262;2022-08-24T00:14:11;20.20;70.60
2190;DHT22;1101;51.056;7.262;2022-08-24T00:16:39;20.10;70.50
2190;DHT22;1101;51.056;7.262;2022-08-24T00:19:08;20.10;70.70
2190;DHT22;1101;51.056;7.262;2022-08-24T00:21:36;20.10;70.90
2190;DHT22;1101;51.056;7.262;2022-08-24T00:24:07;20.10;70.90
2190;DHT22;1101;51.056;7.262;2022-08-24T00:26:35;20.10;70.80
2190;DHT22;1101;51.056;7.262;2022-08-24T00:29:05;20.10;70.90
2190;DHT22;1101;51.056;7.262;2022-08-24T00:31:33;20.10;70.90
2190;DHT22;1101;51.056;7.262;2022-08-24T00:34:01;20.00;70.90
2190;DHT22;1101;51.056;7.262;2022-08-24T00:36:31;20.00;70.90
2190;DHT22;1101;51.056;7.262;2022-08-24T00:38:59;20.00;70.90
2190;DHT22;1101;51.056;7.262;2022-08-24T00:41:27;20.00;71.10
2190;DHT22;1101;51.056;7.262;2022-08-24T00:43:57;19.90;71.10
2190;DHT22;1101;51.056;7.262;2022-08-24T00:46:29;19.90;71.10
2190;DHT22;1101;51.056;7.262;2022-08-24T00:49:04;19.90;71.20
2190;DHT22;1101;51.056;7.262;2022-08-24T00:51:37;19.90;71.30
2190;DHT22;1101;51.056;7.262;2022-08-24T00:54:13;19.90;71.30
2190;DHT22;1101;51.056;7.262;2022-08-24T00:56:50;19.80;71.30
2190;DHT22;1101;51.056;7.262;2022-08-24T00:59:21;19.80;71.40
2190;DHT22;1101;51.056;7.262;2022-08-24T01:01:50;19.70;71.30
2190;DHT22;1101;51.056;7.262;2022-08-24T01:04:23;19.70;71.40
2190;DHT22;1101;51.056;7.262;2022-08-24T01:06:56;19.60;71.40
2190;DHT22;1101;51.056;7.262;2022-08-24T01:09:24;19.60;71.40
2190;DHT22;1101;51.056;7.262;2022-08-24T01:11:52;19.60;71.50
2190;DHT22;1101;51.056;7.262;2022-08-24T01:14:21;19.50;71.60
2190;DHT22;1101;51.056;7.262;2022-08-24T01:16:50;19.50;71.70
2190;DHT22;1101;51.056;7.262;2022-08-24T01:19:42;19.50;71.80
2190;DHT22;1101;51.056;7.262;2022-08-24T01:22:36;19.40;71.80
2190;DHT22;1101;51.056;7.262;2022-08-24T01:25:08;19.40;71.80
2190;DHT22;1101;51.056;7.262;2022-08-24T01:27:37;19.40;72.00
2190;DHT22;1101;51.056;7.262;2022-08-24T01:30:10;19.30;71.90
2190;DHT22;1101;51.056;7.262;2022-08-24T01:32:39;19.30;72.00
2190;DHT22;1101;51.056;7.262;2022-08-24T01:35:08;19.30;72.10
2190;DHT22;1101;51.056;7.262;2022-08-24T01:37:38;19.20;72.10
2190;DHT22;1101;51.056;7.262;2022-08-24T01:40:09;19.20;72.20
2190;DHT22;1101;51.056;7.262;2022-08-24T01:42:46;19.10;72.90
2190;DHT22;1101;51.056;7.262;2022-08-24T01:45:15;19.10;72.40
2190;DHT22;1101;51.056;7.262;2022-08-24T01:47:42;19.00;72.50
2190;DHT22;1101;51.056;7.262;2022-08-24T01:50:11;19.00;72.50
2190;DHT22;1101;51.056;7.262;2022-08-24T01:52:40;19.00;72.50
2190;DHT22;1101;51.056;7.262;2022-08-24T01:55:30;19.00;72.60
2190;DHT22;1101;51.056;7.262;2022-08-24T01:57:58;18.90;72.60
2190;DHT22;1101;51.056;7.262;2022-08-24T02:00:27;18.90;72.60
2190;DHT22;1101;51.056;7.262;2022-08-24T02:02:55;18.90;73.50
2190;DHT22;1101;51.056;7.262;2022-08-24T02:05:23;18.90;72.80
2190;DHT22;1101;51.056;7.262;2022-08-24T02:07:51;18.80;72.90
2190;DHT22;1101;51.056;7.262;2022-08-24T02:10:21;18.80;72.90
2190;DHT22;1101;51.056;7.262;2022-08-24T02:12:50;18.70;72.90
2190;DHT22;1101;51.056;7.262;2022-08-24T02:15:26;18.70;73.00
2190;DHT22;1101;51.056;7.262;2022-08-24T02:17:54;18.70;73.10
2190;DHT22;1101;51.056;7.262;2022-08-24T02:20:23;18.70;73.20
2190;DHT22;1101;51.056;7.262;2022-08-24T02:22:52;18.60;73.20
2190;DHT22;1101;51.056;7.262;2022-08-24T02:25:20;18.60;73.20
2190;DHT22;1101;51.056;7.262;2022-08-24T02:27:51;18.60;73.30
2190;DHT22;1101;51.056;7.262;2022-08-24T02:30:18;18.50;73.30
2190;DHT22;1101;51.056;7.262;2022-08-24T02:32:46;18.50;73.40
2190;DHT22;1101;51.056;7.262;2022-08-24T02:35:14;18.50;73.40
2190;DHT22;1101;51.056;7.262;2022-08-24T02:37:42;18.50;73.50
2190;DHT22;1101;51.056;7.262;2022-08-24T02:40:11;18.40;73.50
2190;DHT22;1101;51.056;7.262;2022-08-24T02:42:40;18.40;73.50
2190;DHT22;1101;51.056;7.262;2022-08-24T02:45:10;18.40;73.60
2190;DHT22;1101;51.056;7.262;2022-08-24T02:47:38;18.30;73.70
2190;DHT22;1101;51.056;7.262;2022-08-24T02:50:08;18.30;73.70
2190;DHT22;1101;51.056;7.262;2022-08-24T02:52:37;18.30;73.70
2190;DHT22;1101;51.056;7.262;2022-08-24T02:55:06;18.30;73.90
2190;DHT22;1101;51.056;7.262;2022-08-24T02:57:34;18.30;73.90
2190;DHT22;1101;51.056;7.262;2022-08-24T03:00:08;18.20;73.90
2190;DHT22;1101;51.056;7.262;2022-08-24T03:02:38;18.20;74.00
2190;DHT22;1101;51.056;7.262;2022-08-24T03:05:08;18.20;74.00
2190;DHT22;1101;51.056;7.262;2022-08-24T03:07:36;18.20;74.20
2190;DHT22;1101;51.056;7.262;2022-08-24T03:10:08;18.10;74.10
2190;DHT22;1101;51.056;7.262;2022-08-24T03:12:36;18.10;74.20
2190;DHT22;1101;51.056;7.262;2022-08-24T03:15:07;18.10;74.20
2190;DHT22;1101;51.056;7.262;2022-08-24T03:17:38;18.10;74.30
2190;DHT22;1101;51.056;7.262;2022-08-24T03:20:11;18.00;74.20
2190;DHT22;1101;51.056;7.262;2022-08-24T03:22:39;18.00;74.30
2190;DHT22;1101;51.056;7.262;2022-08-24T03:25:08;18.00;74.30
2190;DHT22;1101;51.056;7.262;2022-08-24T03:27:37;17.90;74.30
2190;DHT22;1101;51.056;7.262;2022-08-24T03:30:07;17.90;74.40
2190;DHT22;1101;51.056;7.262;2022-08-24T03:32:40;17.90;74.40
2190;DHT22;1101;51.056;7.262;2022-08-24T03:35:10;17.90;74.40
2190;DHT22;1101;51.056;7.262;2022-08-24T03:37:38;17.90;74.60
2190;DHT22;1101;51.056;7.262;2022-08-24T03:40:08;17.80;74.50
2190;DHT22;1101;51.056;7.262;2022-08-24T03:42:50;17.80;74.60
2190;DHT22;1101;51.056;7.262;2022-08-24T03:45:18;17.80;74.60
2190;DHT22;1101;51.056;7.262;2022-08-24T03:47:47;17.80;74.70
2190;DHT22;1101;51.056;7.262;2022-08-24T03:50:15;17.70;74.60
2190;DHT22;1101;51.056;7.262;2022-08-24T03:52:43;17.70;74.80
2190;DHT22;1101;51.056;7.262;2022-08-24T03:55:11;17.70;74.70
2190;DHT22;1101;51.056;7.262;2022-08-24T03:57:40;17.70;74.70
2190;DHT22;1101;51.056;7.262;2022-08-24T04:00:10;17.70;74.70
2190;DHT22;1101;51.056;7.262;2022-08-24T04:02:38;17.60;74.60
2190;DHT22;1101;51.056;7.262;2022-08-24T04:05:08;17.70;74.70
2190;DHT22;1101;51.056;7.262;2022-08-24T04:07:36;17.60;74.50
2190;DHT22;1101;51.056;7.262;2022-08-24T04:10:04;17.60;74.50
2190;DHT22;1101;51.056;7.262;2022-08-24T04:12:32;17.60;74.40
2190;DHT22;1101;51.056;7.262;2022-08-24T04:15:00;17.60;74.40
2190;DHT22;1101;51.056;7.262;2022-08-24T04:17:28;17.60;74.40
2190;DHT22;1101;51.056;7.262;2022-08-24T04:19:56;17.50;74.30
2190;DHT22;1101;51.056;7.262;2022-08-24T04:22:27;17.50;74.30
2190;DHT22;1101;51.056;7.262;2022-08-24T04:24:55;17.50;74.40
2190;DHT22;1101;51.056;7.262;2022-08-24T04:27:51;17.50;74.40
2190;DHT22;1101;51.056;7.262;2022-08-24T04:30:20;17.40;74.40
2190;DHT22;1101;51.056;7.262;2022-08-24T04:32:48;17.40;74.50
2190;DHT22;1101;51.056;7.262;2022-08-24T04:35:16;17.40;74.50
2190;DHT22;1101;51.056;7.262;2022-08-24T04:37:45;17.40;74.50
2190;DHT22;1101;51.056;7.262;2022-08-24T04:40:14;17.40;74.50
2190;DHT22;1101;51.056;7.262;2022-08-24T04:42:45;17.40;74.60
2190;DHT22;1101;51.056;7.262;2022-08-24T04:45:14;17.30;74.50
2190;DHT22;1101;51.056;7.262;2022-08-24T04:47:42;17.30;74.50
2190;DHT22;1101;51.056;7.262;2022-08-24T04:50:11;17.30;74.40
2190;DHT22;1101;51.056;7.262;2022-08-24T04:52:39;17.30;74.40
2190;DHT22;1101;51.056;7.262;2022-08-24T04:55:09;17.30;74.40
2190;DHT22;1101;51.056;7.262;2022-08-24T04:57:38;17.30;74.30
2190;DHT22;1101;51.056;7.262;2022-08-24T05:00:06;17.30;74.30
2190;DHT22;1101;51.056;7.262;2022-08-24T05:02:36;17.30;74.30
2190;DHT22;1101;51.056;7.262;2022-08-24T05:05:10;17.30;74.30
2190;DHT22;1101;51.056;7.262;2022-08-24T05:07:38;17.30;74.20
2190;DHT22;1101;51.056;7.262;2022-08-24T05:10:08;17.30;74.10
2190;DHT22;1101;51.056;7.262;2022-08-24T05:12:37;17.40;74.20
2190;DHT22;1101;51.056;7.262;2022-08-24T05:15:06;17.40;74.10
2190;DHT22;1101;51.056;7.262;2022-08-24T05:17:34;17.40;74.10
2190;DHT22;1101;51.056;7.262;2022-08-24T05:20:02;17.40;74.20
2190;DHT22;1101;51.056;7.262;2022-08-24T05:22:30;17.40;74.10
2190;DHT22;1101;51.056;7.262;2022-08-24T05:24:58;17.40;74.00
2190;DHT22;1101;51.056;7.262;2022-08-24T05:27:27;17.50;74.10
2190;DHT22;1101;51.056;7.262;2022-08-24T05:29:55;17.50;74.10
2190;DHT22;1101;51.056;7.262;2022-08-24T05:32:23;17.50;73.90
2190;DHT22;1101;51.056;7.262;2022-08-24T05:34:51;17.50;73.80
2190;DHT22;1101;51.056;7.262;2022-08-24T05:37:18;17.60;73.90
2190;DHT22;1101;51.056;7.262;2022-08-24T05:39:46;17.60;73.80
2190;DHT22;1101;51.056;7.262;2022-08-24T05:42:14;17.70;73.80
2190;DHT22;1101;51.056;7.262;2022-08-24T05:44:43;17.70;73.80
2190;DHT22;1101;51.056;7.262;2022-08-24T05:47:11;17.70;73.80
2190;DHT22;1101;51.056;7.262;2022-08-24T05:49:39;17.70;73.60
2190;DHT22;1101;51.056;7.262;2022-08-24T05:52:07;17.80;73.60
2190;DHT22;1101;51.056;7.262;2022-08-24T05:54:35;17.80;73.50
2190;DHT22;1101;51.056;7.262;2022-08-24T05:57:04;17.90;73.60
2190;DHT22;1101;51.056;7.262;2022-08-24T05:59:32;17.90;73.40
2190;DHT22;1101;51.056;7.262;2022-08-24T06:02:01;18.00;73.40
2190;DHT22;1101;51.056;7.262;2022-08-24T06:04:30;18.10;73.50
2190;DHT22;1101;51.056;7.262;2022-08-24T06:06:58;18.20;73.60
2190;DHT22;1101;51.056;7.262;2022-08-24T06:09:25;18.30;73.40
2190;DHT22;1101;51.056;7.262;2022-08-24T06:11:53;18.50;73.40
2190;DHT22;1101;51.056;7.262;2022-08-24T06:14:49;18.60;73.60
2190;DHT22;1101;51.056;7.262;2022-08-24T06:17:46;18.60;73.50
2190;DHT22;1101;51.056;7.262;2022-08-24T06:20:41;18.60;73.70
2190;DHT22;1101;51.056;7.262;2022-08-24T06:23:39;18.70;73.70
2190;DHT22;1101;51.056;7.262;2022-08-24T06:26:35;18.80;73.80
2190;DHT22;1101;51.056;7.262;2022-08-24T06:29:58;18.80;73.70
2190;DHT22;1101;51.056;7.262;2022-08-24T06:32:57;18.90;73.60
2190;DHT22;1101;51.056;7.262;2022-08-24T06:35:28;19.00;73.40
2190;DHT22;1101;51.056;7.262;2022-08-24T06:37:56;19.10;73.30
2190;DHT22;1101;51.056;7.262;2022-08-24T06:40:25;19.10;73.30
2190;DHT22;1101;51.056;7.262;2022-08-24T06:42:53;19.20;73.20
2190;DHT22;1101;51.056;7.262;2022-08-24T06:45:21;19.30;73.20
2190;DHT22;1101;51.056;7.262;2022-08-24T06:47:49;19.40;73.10
2190;DHT22;1101;51.056;7.262;2022-08-24T06:50:19;19.40;73.00
2190;DHT22;1101;51.056;7.262;2022-08-24T06:52:50;19.50;72.90
2190;DHT22;1101;51.056;7.262;2022-08-24T06:55:18;19.60;72.70
2190;DHT22;1101;51.056;7.262;2022-08-24T06:57:45;19.70;72.60
2190;DHT22;1101;51.056;7.262;2022-08-24T07:00:19;19.80;72.50
2190;DHT22;1101;51.056;7.262;2022-08-24T07:02:47;19.90;72.50
2190;DHT22;1101;51.056;7.262;2022-08-24T07:05:15;20.00;72.40
2190;DHT22;1101;51.056;7.262;2022-08-24T07:07:44;20.10;72.30
2190;DHT22;1101;51.056;7.262;2022-08-24T07:10:13;20.20;72.20
2190;DHT22;1101;51.056;7.262;2022-08-24T07:12:40;20.30;72.10
2190;DHT22;1101;51.056;7.262;2022-08-24T07:15:12;20.40;72.00
2190;DHT22;1101;51.056;7.262;2022-08-24T07:17:42;20.50;71.80
2190;DHT22;1101;51.056;7.262;2022-08-24T07:20:11;20.70;71.80
2190;DHT22;1101;51.056;7.262;2022-08-24T07:22:39;20.70;71.60
2190;DHT22;1101;51.056;7.262;2022-08-24T07:25:10;20.80;71.50
2190;DHT22;1101;51.056;7.262;2022-08-24T07:27:38;20.90;71.40
2190;DHT22;1101;51.056;7.262;2022-08-24T07:30:07;21.00;71.40
2190;DHT22;1101;51.056;7.262;2022-08-24T07:32:52;21.10;71.40
2190;DHT22;1101;51.056;7.262;2022-08-24T07:35:20;21.20;71.10
2190;DHT22;1101;51.056;7.262;2022-08-24T07:37:48;21.30;71.00
2190;DHT22;1101;51.056;7.262;2022-08-24T07:40:21;21.50;71.00
2190;DHT22;1101;51.056;7.262;2022-08-24T07:42:49;21.60;70.80
2190;DHT22;1101;51.056;7.262;2022-08-24T07:45:18;21.70;71.40
2190;DHT22;1101;51.056;7.262;2022-08-24T07:47:46;21.80;70.60
2190;DHT22;1101;51.056;7.262;2022-08-24T07:50:20;21.90;70.40
2190;DHT22;1101;51.056;7.262;2022-08-24T07:52:48;22.00;70.30
2190;DHT22;1101;51.056;7.262;2022-08-24T07:55:17;22.10;70.30
2190;DHT22;1101;51.056;7.262;2022-08-24T07:57:46;22.20;70.10
2190;DHT22;1101;51.056;7.262;2022-08-24T08:00:16;22.30;70.00
2190;DHT22;1101;51.056;7.262;2022-08-24T08:02:46;22.40;70.00
2190;DHT22;1101;51.056;7.262;2022-08-24T08:05:16;22.50;69.90
2190;DHT22;1101;51.056;7.262;2022-08-24T08:07:44;22.60;69.80
2190;DHT22;1101;51.056;7.262;2022-08-24T08:10:17;22.80;69.70
2190;DHT22;1101;51.056;7.262;2022-08-24T08:12:47;22.90;69.60
2190;DHT22;1101;51.056;7.262;2022-08-24T08:15:14;23.00;69.50
2190;DHT22;1101;51.056;7.262;2022-08-24T08:17:42;23.10;69.40
2190;DHT22;1101;51.056;7.262;2022-08-24T08:20:11;23.20;69.20
2190;DHT22;1101;51.056;7.262;2022-08-24T08:22:43;23.30;69.10
2190;DHT22;1101;51.056;7.262;2022-08-24T08:25:28;23.50;69.00
2190;DHT22;1101;51.056;7.262;2022-08-24T08:27:58;23.60;68.80
2190;DHT22;1101;51.056;7.262;2022-08-24T08:30:44;23.70;68.70
2190;DHT22;1101;51.056;7.262;2022-08-24T08:33:12;23.80;68.60
2190;DHT22;1101;51.056;7.262;2022-08-24T08:35:41;23.90;68.40
2190;DHT22;1101;51.056;7.262;2022-08-24T08:38:10;24.00;68.40
2190;DHT22;1101;51.056;7.262;2022-08-24T08:40:49;24.10;68.40
2190;DHT22;1101;51.056;7.262;2022-08-24T08:43:38;24.20;68.10
2190;DHT22;1101;51.056;7.262;2022-08-24T08:46:26;24.30;68.00
2190;DHT22;1101;51.056;7.262;2022-08-24T08:49:22;24.50;68.00
2190;DHT22;1101;51.056;7.262;2022-08-24T08:52:32;24.60;67.90
2190;DHT22;1101;51.056;7.262;2022-08-24T08:55:19;24.70;67.80
2190;DHT22;1101;51.056;7.262;2022-08-24T08:57:57;24.80;67.60
2190;DHT22;1101;51.056;7.262;2022-08-24T09:00:45;24.90;67.60
2190;DHT22;1101;51.056;7.262;2022-08-24T09:03:28;25.00;67.60
2190;DHT22;1101;51.056;7.262;2022-08-24T09:06:17;25.10;67.40
2190;DHT22;1101;51.056;7.262;2022-08-24T09:09:12;25.20;67.30
2190;DHT22;1101;51.056;7.262;2022-08-24T09:11:50;25.30;67.10
2190;DHT22;1101;51.056;7.262;2022-08-24T09:14:50;25.40;67.00
2190;DHT22;1101;51.056;7.262;2022-08-24T09:17:31;25.50;66.90
2190;DHT22;1101;51.056;7.262;2022-08-24T09:20:11;25.60;66.80
2190;DHT22;1101;51.056;7.262;2022-08-24T09:22:46;25.70;66.70
2190;DHT22;1101;51.056;7.262;2022-08-24T09:25:22;25.80;66.50
2190;DHT22;1101;51.056;7.262;2022-08-24T09:28:04;25.80;66.30
2190;DHT22;1101;51.056;7.262;2022-08-24T09:30:57;25.90;66.10
2190;DHT22;1101;51.056;7.262;2022-08-24T09:33:36;26.00;66.00
2190;DHT22;1101;51.056;7.262;2022-08-24T09:36:10;26.10;66.70
2190;DHT22;1101;51.056;7.262;2022-08-24T09:38:56;26.20;65.90
2190;DHT22;1101;51.056;7.262;2022-08-24T09:47:58;26.60;65.30
2190;DHT22;1101;51.056;7.262;2022-08-24T09:50:58;26.70;65.00
2190;DHT22;1101;51.056;7.262;2022-08-24T09:56:38;26.90;64.70
2190;DHT22;1101;51.056;7.262;2022-08-24T09:59:20;27.00;64.60
2190;DHT22;1101;51.056;7.262;2022-08-24T10:01:56;27.10;64.60
2190;DHT22;1101;51.056;7.262;2022-08-24T10:04:32;27.20;64.50
2190;DHT22;1101;51.056;7.262;2022-08-24T10:07:09;27.30;64.40
2190;DHT22;1101;51.056;7.262;2022-08-24T10:09:50;27.40;64.10
2190;DHT22;1101;51.056;7.262;2022-08-24T10:12:38;27.50;64.00
2190;DHT22;1101;51.056;7.262;2022-08-24T10:15:10;27.60;63.80
2190;DHT22;1101;51.056;7.262;2022-08-24T10:17:48;27.70;63.70
2190;DHT22;1101;51.056;7.262;2022-08-24T10:20:21;27.90;63.80
2190;DHT22;1101;51.056;7.262;2022-08-24T10:23:00;28.00;63.60
2190;DHT22;1101;51.056;7.262;2022-08-24T10:25:34;28.10;63.50
2190;DHT22;1101;51.056;7.262;2022-08-24T10:28:32;28.20;63.30
2190;DHT22;1101;51.056;7.262;2022-08-24T10:31:05;28.30;62.60
2190;DHT22;1101;51.056;7.262;2022-08-24T10:33:50;28.30;62.60
2190;DHT22;1101;51.056;7.262;2022-08-24T10:36:46;28.40;62.50
2190;DHT22;1101;51.056;7.262;2022-08-24T10:39:32;28.50;62.60
2190;DHT22;1101;51.056;7.262;2022-08-24T10:42:34;28.60;62.50
2190;DHT22;1101;51.056;7.262;2022-08-24T10:45:41;28.70;62.30
2190;DHT22;1101;51.056;7.262;2022-08-24T10:48:35;28.80;62.20
2190;DHT22;1101;51.056;7.262;2022-08-24T10:51:16;29.00;62.10
2190;DHT22;1101;51.056;7.262;2022-08-24T10:53:51;29.10;61.90
2190;DHT22;1101;51.056;7.262;2022-08-24T10:56:29;29.20;61.70
2190;DHT22;1101;51.056;7.262;2022-08-24T10:59:06;29.30;61.60
2190;DHT22;1101;51.056;7.262;2022-08-24T11:01:38;29.40;61.50
2190;DHT22;1101;51.056;7.262;2022-08-24T11:04:09;29.60;61.30
2190;DHT22;1101;51.056;7.262;2022-08-24T11:06:40;29.70;61.20
2190;DHT22;1101;51.056;7.262;2022-08-24T11:09:11;29.70;61.00
2190;DHT22;1101;51.056;7.262;2022-08-24T11:11:48;29.80;60.90
2190;DHT22;1101;51.056;7.262;2022-08-24T11:14:25;29.80;60.90
2190;DHT22;1101;51.056;7.262;2022-08-24T11:17:13;29.90;60.90
2190;DHT22;1101;51.056;7.262;2022-08-24T11:19:42;30.00;60.70
2190;DHT22;1101;51.056;7.262;2022-08-24T11:22:26;30.10;60.60
2190;DHT22;1101;51.056;7.262;2022-08-24T11:24:57;30.20;60.50
2190;DHT22;1101;51.056;7.262;2022-08-24T11:27:32;30.30;60.20
2190;DHT22;1101;51.056;7.262;2022-08-24T11:30:09;30.40;60.10
2190;DHT22;1101;51.056;7.262;2022-08-24T11:32:42;30.40;59.90
2190;DHT22;1101;51.056;7.262;2022-08-24T11:35:21;30.50;59.80
2190;DHT22;1101;51.056;7.262;2022-08-24T11:37:51;30.50;59.80
2190;DHT22;1101;51.056;7.262;2022-08-24T11:40:22;30.60;59.70
2190;DHT22;1101;51.056;7.262;2022-08-24T11:43:10;30.60;59.50
2190;DHT22;1101;51.056;7.262;2022-08-24T11:45:44;30.70;59.30
2190;DHT22;1101;51.056;7.262;2022-08-24T11:48:24;30.80;59.30
2190;DHT22;1101;51.056;7.262;2022-08-24T11:50:59;30.90;59.20
2190;DHT22;1101;51.056;7.262;2022-08-24T11:53:37;31.00;58.90
2190;DHT22;1101;51.056;7.262;2022-08-24T11:56:21;31.10;59.00
2190;DHT22;1101;51.056;7.262;2022-08-24T11:59:02;31.20;58.80
2190;DHT22;1101;51.056;7.262;2022-08-24T12:01:34;31.20;58.60
2190;DHT22;1101;51.056;7.262;2022-08-24T12:04:30;31.20;58.40
2190;DHT22;1101;51.056;7.262;2022-08-24T12:07:10;31.30;58.30
2190;DHT22;1101;51.056;7.262;2022-08-24T12:09:50;31.30;58.30
2190;DHT22;1101;51.056;7.262;2022-08-24T12:12:27;31.40;58.10
2190;DHT22;1101;51.056;7.262;2022-08-24T12:15:04;31.50;58.20
2190;DHT22;1101;51.056;7.262;2022-08-24T12:17:38;31.60;58.10
2190;DHT22;1101;51.056;7.262;2022-08-24T12:20:14;31.60;57.90
2190;DHT22;1101;51.056;7.262;2022-08-24T12:22:48;31.60;57.90
2190;DHT22;1101;51.056;7.262;2022-08-24T12:25:18;31.70;57.80
2190;DHT22;1101;51.056;7.262;2022-08-24T12:28:04;31.80;57.80
2190;DHT22;1101;51.056;7.262;2022-08-24T12:30:33;31.80;57.60
2190;DHT22;1101;51.056;7.262;2022-08-24T12:33:04;31.80;57.20
2190;DHT22;1101;51.056;7.262;2022-08-24T12:35:38;31.80;57.30
2190;DHT22;1101;51.056;7.262;2022-08-24T12:38:11;31.90;57.40
2190;DHT22;1101;51.056;7.262;2022-08-24T12:40:42;32.00;57.40
2190;DHT22;1101;51.056;7.262;2022-08-24T12:43:18;32.00;57.20
2190;DHT22;1101;51.056;7.262;2022-08-24T12:45:50;32.10;57.00
2190;DHT22;1101;51.056;7.262;2022-08-24T12:48:25;32.10;57.10
2190;DHT22;1101;51.056;7.262;2022-08-24T12:51:04;32.10;57.00
2190;DHT22;1101;51.056;7.262;2022-08-24T12:53:53;32.10;57.00
2190;DHT22;1101;51.056;7.262;2022-08-24T12:57:03;32.20;56.90
2190;DHT22;1101;51.056;7.262;2022-08-24T12:59:37;32.30;56.60
2190;DHT22;1101;51.056;7.262;2022-08-24T13:02:26;32.30;56.50
2190;DHT22;1101;51.056;7.262;2022-08-24T13:04:57;32.40;56.50
2190;DHT22;1101;51.056;7.262;2022-08-24T13:07:28;32.50;56.40
2190;DHT22;1101;51.056;7.262;2022-08-24T13:10:08;32.50;56.40
2190;DHT22;1101;51.056;7.262;2022-08-24T13:13:07;32.50;56.30
2190;DHT22;1101;51.056;7.262;2022-08-24T13:15:54;32.50;56.20
2190;DHT22;1101;51.056;7.262;2022-08-24T13:18:50;32.50;55.90
2190;DHT22;1101;51.056;7.262;2022-08-24T13:21:36;32.50;56.00
2190;DHT22;1101;51.056;7.262;2022-08-24T13:30:57;32.50;55.80
2190;DHT22;1101;51.056;7.262;2022-08-24T13:33:30;32.60;55.70
2190;DHT22;1101;51.056;7.262;2022-08-24T13:36:34;32.50;55.60
2190;DHT22;1101;51.056;7.262;2022-08-24T13:39:11;32.60;55.70
2190;DHT22;1101;51.056;7.262;2022-08-24T13:41:47;32.60;55.70
2190;DHT22;1101;51.056;7.262;2022-08-24T13:44:45;32.70;55.60
2190;DHT22;1101;51.056;7.262;2022-08-24T13:47:20;32.70;55.40
2190;DHT22;1101;51.056;7.262;2022-08-24T13:49:56;32.70;55.30
2190;DHT22;1101;51.056;7.262;2022-08-24T13:52:39;32.70;55.00
2190;DHT22;1101;51.056;7.262;2022-08-24T13:55:25;32.80;55.20
2190;DHT22;1101;51.056;7.262;2022-08-24T13:58:07;32.90;55.10
2190;DHT22;1101;51.056;7.262;2022-08-24T14:00:42;32.90;55.00
2190;DHT22;1101;51.056;7.262;2022-08-24T14:03:40;33.00;54.90
2190;DHT22;1101;51.056;7.262;2022-08-24T14:06:23;33.10;54.70
2190;DHT22;1101;51.056;7.262;2022-08-24T14:09:02;33.20;54.60
2190;DHT22;1101;51.056;7.262;2022-08-24T14:11:44;33.20;54.40
2190;DHT22;1101;51.056;7.262;2022-08-24T14:14:19;33.20;54.40
2190;DHT22;1101;51.056;7.262;2022-08-24T14:16:58;33.20;54.30
2190;DHT22;1101;51.056;7.262;2022-08-24T14:19:56;33.10;54.30
2190;DHT22;1101;51.056;7.262;2022-08-24T14:22:32;33.10;53.30
2190;DHT22;1101;51.056;7.262;2022-08-24T14:25:19;33.10;53.90
2190;DHT22;1101;51.056;7.262;2022-08-24T14:27:50;33.00;53.80
2190;DHT22;1101;51.056;7.262;2022-08-24T14:30:44;33.00;54.10
2190;DHT22;1101;51.056;7.262;2022-08-24T14:33:30;33.00;53.90
2190;DHT22;1101;51.056;7.262;2022-08-24T14:36:11;33.00;53.70
2190;DHT22;1101;51.056;7.262;2022-08-24T14:39:00;33.00;53.80
2190;DHT22;1101;51.056;7.262;2022-08-24T14:41:53;33.00;53.70
2190;DHT22;1101;51.056;7.262;2022-08-24T14:44:47;33.00;53.70
2190;DHT22;1101;51.056;7.262;2022-08-24T14:47:29;33.00;53.60
2190;DHT22;1101;51.056;7.262;2022-08-24T14:50:09;32.90;53.50
2190;DHT22;1101;51.056;7.262;2022-08-24T14:52:45;32.80;53.60
2190;DHT22;1101;51.056;7.262;2022-08-24T14:55:25;32.80;53.70
2190;DHT22;1101;51.056;7.262;2022-08-24T15:01:16;32.80;53.70
2190;DHT22;1101;51.056;7.262;2022-08-24T15:04:23;32.80;53.70
2190;DHT22;1101;51.056;7.262;2022-08-24T15:07:25;32.80;53.30
2190;DHT22;1101;51.056;7.262;2022-08-24T15:09:54;32.80;53.60
2190;DHT22;1101;51.056;7.262;2022-08-24T15:12:31;32.90;53.70
2190;DHT22;1101;51.056;7.262;2022-08-24T15:15:06;33.00;53.30
2190;DHT22;1101;51.056;7.262;2022-08-24T15:17:42;33.00;53.20
2190;DHT22;1101;51.056;7.262;2022-08-24T15:20:19;33.10;53.40
2190;DHT22;1101;51.056;7.262;2022-08-24T15:22:53;33.10;53.30
2190;DHT22;1101;51.056;7.262;2022-08-24T15:25:31;33.20;53.40
2190;DHT22;1101;51.056;7.262;2022-08-24T15:28:07;33.30;53.10
2190;DHT22;1101;51.056;7.262;2022-08-24T15:30:37;33.40;53.00
2190;DHT22;1101;51.056;7.262;2022-08-24T15:33:10;33.50;53.00
2190;DHT22;1101;51.056;7.262;2022-08-24T15:35:51;33.60;53.10
2190;DHT22;1101;51.056;7.262;2022-08-24T15:38:32;33.60;53.00
2190;DHT22;1101;51.056;7.262;2022-08-24T15:41:06;33.70;52.80
2190;DHT22;1101;51.056;7.262;2022-08-24T15:43:39;33.80;52.70
2190;DHT22;1101;51.056;7.262;2022-08-24T15:46:07;33.80;52.70
2190;DHT22;1101;51.056;7.262;2022-08-24T15:48:39;33.80;52.50
2190;DHT22;1101;51.056;7.262;2022-08-24T15:51:08;33.90;52.60
2190;DHT22;1101;51.056;7.262;2022-08-24T15:53:41;33.90;52.50
2190;DHT22;1101;51.056;7.262;2022-08-24T15:56:29;33.90;52.50
2190;DHT22;1101;51.056;7.262;2022-08-24T15:59:08;33.90;52.30
2190;DHT22;1101;51.056;7.262;2022-08-24T16:01:36;33.80;52.10
2190;DHT22;1101;51.056;7.262;2022-08-24T16:04:43;33.70;52.00
2190;DHT22;1101;51.056;7.262;2022-08-24T16:07:14;33.60;51.80
2190;DHT22;1101;51.056;7.262;2022-08-24T16:09:43;33.40;51.10
2190;DHT22;1101;51.056;7.262;2022-08-24T16:12:13;33.30;50.60
2190;DHT22;1101;51.056;7.262;2022-08-24T16:14:46;33.10;51.50
2190;DHT22;1101;51.056;7.262;2022-08-24T16:17:26;33.00;51.80
2190;DHT22;1101;51.056;7.262;2022-08-24T16:19:58;33.00;52.40
2190;DHT22;1101;51.056;7.262;2022-08-24T16:22:31;32.80;51.80
2190;DHT22;1101;51.056;7.262;2022-08-24T16:25:21;32.70;51.90
2190;DHT22;1101;51.056;7.262;2022-08-24T16:30:51;32.50;51.50
2190;DHT22;1101;51.056;7.262;2022-08-24T16:33:39;32.30;51.70
2190;DHT22;1101;51.056;7.262;2022-08-24T16:36:14;32.20;52.10
2190;DHT22;1101;51.056;7.262;2022-08-24T16:38:45;32.10;52.40
2190;DHT22;1101;51.056;7.262;2022-08-24T16:41:16;32.00;52.40
2190;DHT22;1101;51.056;7.262;2022-08-24T16:43:45;32.00;52.50
2190;DHT22;1101;51.056;7.262;2022-08-24T16:46:18;31.90;52.50
2190;DHT22;1101;51.056;7.262;2022-08-24T16:48:46;31.80;52.60
2190;DHT22;1101;51.056;7.262;2022-08-24T16:51:15;31.70;52.80
2190;DHT22;1101;51.056;7.262;2022-08-24T16:53:43;31.70;52.90
2190;DHT22;1101;51.056;7.262;2022-08-24T16:56:11;31.50;52.80
2190;DHT22;1101;51.056;7.262;2022-08-24T16:58:44;31.40;52.80
2190;DHT22;1101;51.056;7.262;2022-08-24T17:01:12;31.40;52.80
2190;DHT22;1101;51.056;7.262;2022-08-24T17:03:40;31.30;53.00
2190;DHT22;1101;51.056;7.262;2022-08-24T17:06:09;31.10;53.10
2190;DHT22;1101;51.056;7.262;2022-08-24T17:08:39;31.10;53.80
2190;DHT22;1101;51.056;7.262;2022-08-24T17:11:07;31.00;53.30
2190;DHT22;1101;51.056;7.262;2022-08-24T17:13:35;30.90;53.40
2190;DHT22;1101;51.056;7.262;2022-08-24T17:16:20;30.80;53.60